Time;durP1;ratioP1;P1;durP2;ratioP2;P2;SDS_P1;SDS_P2;PMS_P1;PMS_P2;Temp;Humidity;BMP_temperature;BMP_pressure;BME280_temperature;BME280_humidity;BME280_pressure;Samples;Min_cycle;Max_cycle;Signal;HPM_P1;HPM_P2
2021/07/01 00:00:30;;;;;;;14.93;12.93;;;;;;;27.66;56.01;94652.59;5069509;28;20200;-70
2021/07/01 00:02:57;;;;;;;19.03;14.10;;;;;;;27.76;56.15;94662.72;5073720;28;20346;-71
2021/07/01 00:05:24;;;;;;;15.50;13.83;;;;;;;27.51;56.54;94663.59;5093941;28;20290;-70
2021/07/01 00:07:52;;;;;;;18.90;14.70;;;;;;;27.56;56.39;94647.88;5094875;28;20195;-74
2021/07/01 00:10:25;;;;;;;16.90;13.73;;;;;;;27.55;56.15;94640.19;5092816;28;20191;-71
2021/07/01 00:12:54;;;;;;;17.30;13.97;;;;;;;27.51;56.69;94663.59;5078370;28;20306;-73
2021/07/01 00:15:25;;;;;;;17.50;13.90;;;;;;;27.54;56.69;94655.56;5092246;28;20193;-72
2021/07/01 00:17:53;;;;;;;16.73;13.43;;;;;;;27.45;56.85;94662.34;5092363;28;20646;-71
2021/07/01 00:20:20;;;;;;;16.10;13.83;;;;;;;27.57;56.61;94670.19;5090533;28;20661;-72
2021/07/01 00:22:48;;;;;;;16.93;14.67;;;;;;;27.49;56.56;94679.31;5092575;28;20192;-72
2021/07/01 00:25:16;;;;;;;21.07;14.30;;;;;;;27.39;57.09;94669.22;5092041;28;20198;-72
2021/07/01 00:27:44;;;;;;;15.33;13.13;;;;;;;27.50;56.87;94670.13;5092450;28;20242;-73
2021/07/01 00:30:13;;;;;;;15.53;13.63;;;;;;;27.34;56.68;94656.84;5091899;28;20222;-70
2021/07/01 00:32:40;;;;;;;15.40;13.27;;;;;;;27.33;57.25;94659.91;5091933;28;20609;-69
2021/07/01 00:35:08;;;;;;;17.40;13.40;;;;;;;27.40;56.79;94662.69;5091603;28;20693;-71
2021/07/01 00:37:35;;;;;;;19.77;12.97;;;;;;;27.46;56.74;94658.53;5085154;28;20234;-70
2021/07/01 00:40:06;;;;;;;14.00;12.70;;;;;;;27.41;56.91;94656.94;5084657;28;20207;-71
2021/07/01 00:42:33;;;;;;;14.93;13.37;;;;;;;27.43;56.82;94664.63;5092173;28;20227;-71
2021/07/01 00:45:00;;;;;;;14.97;13.40;;;;;;;27.47;56.60;94654.69;5092085;28;20309;-71
2021/07/01 00:47:27;;;;;;;15.87;13.67;;;;;;;27.54;56.21;94662.84;5077267;28;20274;-71
2021/07/01 00:49:54;;;;;;;14.77;13.20;;;;;;;27.51;56.67;94656.28;5091631;28;20188;-68
2021/07/01 00:52:22;;;;;;;20.23;12.73;;;;;;;27.24;57.38;94651.31;5090229;28;20199;-72
2021/07/01 00:54:49;;;;;;;16.63;13.93;;;;;;;27.20;57.57;94655.88;5082490;28;20246;-70
2021/07/01 00:57:16;;;;;;;15.07;13.43;;;;;;;27.28;57.33;94655.59;5072059;28;20686;-71
2021/07/01 00:59:43;;;;;;;15.77;14.10;;;;;;;27.24;57.46;94662.88;5091577;28;20622;-70
2021/07/01 01:02:10;;;;;;;20.60;12.80;;;;;;;27.36;57.25;94659.19;5091807;28;20219;-70
2021/07/01 01:04:38;;;;;;;15.87;13.30;;;;;;;27.33;56.96;94671.47;5089518;28;20214;-69
2021/07/01 01:07:05;;;;;;;14.40;12.90;;;;;;;27.24;57.12;94640.56;5090478;28;20310;-71
2021/07/01 01:09:32;;;;;;;15.67;13.77;;;;;;;27.10;57.59;94662.66;5090762;28;20202;-72
2021/07/01 01:11:59;;;;;;;15.30;13.70;;;;;;;27.09;57.66;94665.72;5090179;28;20744;-71
2021/07/01 01:14:26;;;;;;;15.93;13.80;;;;;;;26.79;58.58;94665.69;5076384;28;20662;-71
2021/07/01 01:17:12;;;;;;;16.67;12.83;;;;;;;27.04;57.91;94675.66;5087067;28;20186;-70
2021/07/01 01:19:40;;;;;;;14.93;13.30;;;;;;;27.16;57.88;94677.34;5088272;28;20199;-72
2021/07/01 01:22:07;;;;;;;14.97;13.57;;;;;;;27.12;57.54;94670.38;5089758;28;20276;-72
2021/07/01 01:24:39;;;;;;;16.17;13.53;;;;;;;27.18;57.56;94680.47;5089110;28;20704;-71
2021/07/01 01:27:06;;;;;;;14.80;13.27;;;;;;;27.10;57.42;94668.03;5090943;28;20619;-73
2021/07/01 01:56:11;;;;;;;16.07;14.37;;;;;;;26.75;58.67;94684.47;5076854;28;20198;-70
2021/07/01 01:58:40;;;;;;;18.97;13.60;;;;;;;26.59;59.01;94691.09;5089341;28;20195;-72
2021/07/01 02:01:26;;;;;;;16.23;14.53;;;;;;;26.59;59.22;94691.09;5070578;28;20217;-70
2021/07/01 02:04:14;;;;;;;15.13;13.30;;;;;;;26.59;58.79;94688.41;5090514;28;20338;-71
2021/07/01 02:06:47;;;;;;;16.07;14.57;;;;;;;26.54;59.08;94684.13;5089022;28;20202;-72
2021/07/01 02:09:17;;;;;;;18.23;13.90;;;;;;;26.63;59.01;94691.94;5087966;28;20211;-70
2021/07/01 02:11:52;;;;;;;16.87;14.93;;;;;;;26.68;58.63;94679.00;5090996;28;20225;-69
2021/07/01 02:14:21;;;;;;;22.33;14.50;;;;;;;26.39;59.59;94676.97;5090123;28;20225;-69
2021/07/01 02:17:07;;;;;;;16.53;14.77;;;;;;;26.61;58.96;94678.06;5090415;28;20210;-70
2021/07/01 02:19:34;;;;;;;16.93;13.93;;;;;;;26.59;58.97;94689.19;5090848;28;20222;-70
2021/07/01 02:22:03;;;;;;;18.70;15.10;;;;;;;26.53;59.14;94682.56;5089775;28;20275;-70
2021/07/01 02:24:33;;;;;;;18.67;14.37;;;;;;;26.27;60.04;94690.59;5089343;28;20215;-72
2021/07/01 02:27:01;;;;;;;15.50;13.67;;;;;;;26.33;59.87;94694.53;5090132;28;20341;-70
2021/07/01 02:29:28;;;;;;;17.43;14.53;;;;;;;26.44;59.56;94700.84;5089155;28;20605;-71
2021/07/01 02:32:08;;;;;;;16.37;14.63;;;;;;;26.46;58.74;94706.66;5075428;28;20229;-71
2021/07/01 02:34:41;;;;;;;20.33;14.00;;;;;;;26.42;59.12;94713.09;5074627;28;20302;-71
2021/07/01 02:37:27;;;;;;;20.63;16.13;;;;;;;26.34;59.59;94714.91;5084044;28;20218;-72
2021/07/01 02:40:17;;;;;;;19.73;15.43;;;;;;;26.36;59.49;94715.31;5063126;28;20199;-71
2021/07/01 02:43:01;;;;;;;17.93;14.67;;;;;;;26.27;60.05;94725.53;5074341;28;20196;-71
2021/07/01 02:45:28;;;;;;;17.33;15.00;;;;;;;26.28;59.85;94716.31;5083469;28;20223;-70
2021/07/01 02:48:03;;;;;;;22.23;16.17;;;;;;;25.74;61.23;94699.59;5078649;28;20222;-71
2021/07/01 02:50:37;;;;;;;24.30;16.07;;;;;;;25.65;61.99;94707.09;5086620;28;20725;-70
2021/07/01 02:53:04;;;;;;;20.60;16.90;;;;;;;26.00;61.23;94729.25;5088616;28;20252;-71
2021/07/01 02:55:31;;;;;;;17.33;14.87;;;;;;;26.06;60.74;94733.19;5075078;28;20289;-70
2021/07/01 02:57:58;;;;;;;17.73;15.43;;;;;;;26.18;60.41;94743.78;5092470;28;20195;-70
2021/07/01 03:00:26;;;;;;;19.20;17.20;;;;;;;25.88;61.13;94737.44;5085284;28;20192;-71
2021/07/01 03:02:55;;;;;;;20.70;15.93;;;;;;;25.92;60.82;94732.91;5087272;28;20202;-71
2021/07/01 03:05:42;;;;;;;23.00;16.20;;;;;;;26.11;60.09;94740.19;5077961;28;20235;-71
2021/07/01 03:08:10;;;;;;;20.90;16.53;;;;;;;26.00;60.44;94750.72;5066400;28;20191;-70
2021/07/01 03:10:45;;;;;;;19.73;16.03;;;;;;;25.94;60.66;94741.41;5079361;28;20660;-72
2021/07/01 03:13:14;;;;;;;21.23;15.87;;;;;;;25.97;60.44;94757.56;5066770;28;20209;-71
2021/07/01 03:15:42;;;;;;;23.53;16.57;;;;;;;26.19;59.60;94757.97;5075470;28;20741;-72
2021/07/01 03:18:10;;;;;;;17.93;16.07;;;;;;;26.02;60.14;94759.19;5088021;28;20199;-70
2021/07/01 03:21:09;;;;;;;18.50;15.60;;;;;;;26.17;59.85;94761.03;5063669;28;20205;-70
2021/07/01 03:23:45;;;;;;;22.97;16.97;;;;;;;26.23;59.32;94764.97;5089181;28;20182;-69
2021/07/01 03:26:13;;;;;;;20.30;16.50;;;;;;;26.21;59.63;94767.25;5087389;28;20221;-68
2021/07/01 03:28:40;;;;;;;24.83;17.50;;;;;;;26.09;59.98;94763.94;5088269;28;20199;-70
2021/07/01 03:31:08;;;;;;;20.37;17.07;;;;;;;25.81;61.39;94774.88;5087624;28;20309;-71
2021/07/01 03:33:37;;;;;;;23.13;17.70;;;;;;;25.78;61.23;94780.97;5089487;28;20194;-71
2021/07/01 03:36:05;;;;;;;24.67;18.20;;;;;;;25.38;62.91;94769.78;5087338;28;20199;-68
2021/07/01 03:38:50;;;;;;;27.73;18.20;;;;;;;25.70;61.59;94779.28;5074979;28;20205;-71
2021/07/01 03:41:32;;;;;;;20.80;16.47;;;;;;;25.82;61.70;94781.84;5088190;28;20245;-71
2021/07/01 03:43:59;;;;;;;19.07;16.93;;;;;;;25.91;60.70;94766.28;5087217;28;20222;-70
2021/07/01 03:46:26;;;;;;;23.23;18.07;;;;;;;25.93;60.86;94782.78;5084773;28;20196;-69
2021/07/01 03:48:53;;;;;;;21.13;17.23;;;;;;;25.30;63.89;94781.47;5085208;28;20223;-69
2021/07/01 03:51:52;;;;;;;22.63;18.30;;;;;;;25.86;61.72;94788.03;5050163;28;20629;-71
2021/07/01 03:54:30;;;;;;;25.20;18.40;;;;;;;26.06;60.75;94781.53;5086742;28;20195;-72
2021/07/01 03:57:02;;;;;;;23.20;18.20;;;;;;;25.86;61.76;94777.28;5071906;28;20209;-72
2021/07/01 03:59:40;;;;;;;25.20;18.83;;;;;;;25.86;62.05;94783.44;5091102;28;20187;-68
2021/07/01 04:02:26;;;;;;;25.20;19.60;;;;;;;25.99;61.79;94776.78;5089492;28;20295;-69
2021/07/01 04:04:56;;;;;;;25.27;19.10;;;;;;;25.50;63.63;94770.44;5089484;28;20246;-69
2021/07/01 04:07:22;;;;;;;26.93;19.37;;;;;;;25.26;64.38;94764.50;5090789;28;20203;-70
2021/07/01 04:09:50;;;;;;;25.03;19.87;;;;;;;25.73;63.13;94762.47;5089452;28;20199;-69
2021/07/01 04:12:52;;;;;;;28.93;20.03;;;;;;;25.96;62.05;94760.63;5063045;28;20203;-70
2021/07/01 04:15:34;;;;;;;21.90;18.87;;;;;;;26.15;61.70;94762.53;5083239;28;20282;-71
2021/07/01 04:18:33;;;;;;;34.43;18.33;;;;;;;26.24;62.16;94766.53;5077178;28;20206;-71
2021/07/01 04:21:25;;;;;;;24.13;19.33;;;;;;;26.31;61.44;94760.50;5091877;28;20205;-69
2021/07/01 04:24:10;;;;;;;28.27;20.07;;;;;;;26.37;61.31;94759.84;5092446;28;20226;-68
2021/07/01 04:26:58;;;;;;;26.40;19.73;;;;;;;26.50;60.60;94739.72;5090790;28;20317;-70
2021/07/01 04:29:30;;;;;;;22.80;20.40;;;;;;;26.79;59.72;94757.88;5083961;28;20199;-72
2021/07/01 04:31:58;;;;;;;25.60;20.03;;;;;;;26.70;60.07;94756.59;5086777;28;20242;-71
2021/07/01 04:34:26;;;;;;;27.73;19.67;;;;;;;26.64;60.49;94742.63;5089517;28;20290;-69
2021/07/01 04:36:53;;;;;;;62.57;54.20;;;;;;;26.95;59.93;94738.94;5090026;28;20230;-69
2021/07/01 04:39:23;;;;;;;85.30;76.53;;;;;;;26.93;59.86;94744.66;5082083;28;20235;-69
2021/07/01 04:42:14;;;;;;;52.17;41.80;;;;;;;27.04;59.21;94745.59;5071416;28;20207;-71
2021/07/01 04:44:41;;;;;;;24.47;21.50;;;;;;;26.91;59.73;94751.53;5075588;28;20230;-70
2021/07/01 04:47:09;;;;;;;21.63;19.53;;;;;;;27.03;59.37;94749.44;5085425;28;20195;-70
2021/07/01 04:49:38;;;;;;;26.97;20.20;;;;;;;27.06;58.80;94747.16;5089749;28;20200;-70
2021/07/01 04:52:27;;;;;;;26.80;20.13;;;;;;;27.27;58.69;94752.81;5091236;28;20699;-70
2021/07/01 04:55:12;;;;;;;23.50;18.67;;;;;;;27.33;59.48;94756.78;5091451;28;20566;-69
2021/07/01 04:57:58;;;;;;;111.33;100.23;;;;;;;27.38;59.09;94737.63;5091401;28;20201;-68
2021/07/01 05:00:25;;;;;;;36.00;30.27;;;;;;;27.55;58.57;94753.22;5089219;28;20203;-69
2021/07/01 05:03:31;;;;;;;28.23;21.17;;;;;;;27.41;59.41;94763.81;5058836;28;20216;-70
2021/07/01 05:05:58;;;;;;;28.50;20.43;;;;;;;27.30;58.84;94760.19;5050559;28;20806;-69
2021/07/01 05:08:25;;;;;;;28.37;23.03;;;;;;;27.12;58.34;94751.84;5065052;28;20211;-68
2021/07/01 05:10:54;;;;;;;25.47;18.40;;;;;;;27.52;58.03;94762.03;5087754;28;20562;-69
2021/07/01 05:13:22;;;;;;;39.03;34.97;;;;;;;27.72;57.54;94763.41;5086536;28;20261;-70
2021/07/01 05:15:49;;;;;;;37.87;30.10;;;;;;;27.75;57.58;94762.72;5082950;28;20754;-69
2021/07/01 05:18:17;;;;;;;31.37;25.67;;;;;;;27.81;57.11;94761.22;5071295;28;20203;-63
2021/07/01 05:21:04;;;;;;;26.93;20.30;;;;;;;27.67;58.38;94761.06;5082536;28;20195;-67
2021/07/01 05:23:51;;;;;;;29.63;19.77;;;;;;;27.76;58.01;94753.47;5080482;28;20217;-66
2021/07/01 05:26:42;;;;;;;29.57;20.20;;;;;;;27.85;57.24;94762.03;5090140;28;20490;-66
2021/07/01 05:29:27;;;;;;;29.40;19.77;;;;;;;27.88;57.42;94742.47;5089927;28;20221;-65
2021/07/01 05:32:33;;;;;;;25.27;19.87;;;;;;;27.92;57.32;94740.56;5090265;28;20261;-65
2021/07/01 05:35:15;;;;;;;31.37;19.93;;;;;;;27.88;58.20;94745.16;5087040;28;20596;-64
2021/07/01 05:37:47;;;;;;;33.03;19.63;;;;;;;27.88;58.74;94740.53;5084550;28;20681;-67
2021/07/01 05:40:21;;;;;;;25.57;19.20;;;;;;;28.17;57.69;94736.28;5069295;28;20641;-63
2021/07/01 05:42:48;;;;;;;27.67;20.43;;;;;;;28.35;56.14;94737.22;5089736;28;20195;-65
2021/07/01 05:45:16;;;;;;;23.73;18.50;;;;;;;28.27;56.60;94735.59;5089639;28;20211;-66
2021/07/01 05:47:43;;;;;;;25.47;19.00;;;;;;;28.27;56.86;94730.19;5089996;28;20195;-65
2021/07/01 05:50:11;;;;;;;31.70;19.30;;;;;;;28.48;56.55;94738.50;5083647;28;20579;-67
2021/07/01 05:52:41;;;;;;;28.03;19.77;;;;;;;28.63;56.04;94737.47;5085943;28;20199;-63
2021/07/01 05:55:09;;;;;;;28.57;19.27;;;;;;;28.63;56.06;94740.16;5069971;28;20202;-64
2021/07/01 05:57:37;;;;;;;24.97;19.30;;;;;;;28.63;54.92;94734.78;5074050;28;20636;-67
2021/07/01 06:00:07;;;;;;;26.80;19.80;;;;;;;28.56;54.74;94737.41;5090345;28;20282;-64
2021/07/01 06:02:47;;;;;;;22.03;18.37;;;;;;;28.47;55.20;94733.44;5071805;28;20203;-64
2021/07/01 06:05:14;;;;;;;32.20;18.37;;;;;;;28.47;55.23;94734.22;5080272;28;20214;-64
2021/07/01 06:08:00;;;;;;;30.93;19.33;;;;;;;28.60;53.84;94729.34;5085118;28;20206;-64
2021/07/01 06:10:30;;;;;;;26.87;17.77;;;;;;;28.54;55.60;94734.31;5069888;28;20200;-67
2021/07/01 06:12:58;;;;;;;28.53;18.63;;;;;;;28.71;54.94;94733.69;5088258;28;20195;-66
2021/07/01 06:15:27;;;;;;;30.33;18.63;;;;;;;28.99;54.39;94741.97;5089936;28;20191;-65
2021/07/01 06:17:54;;;;;;;28.80;18.60;;;;;;;28.98;53.61;94745.06;5075922;28;20207;-63
2021/07/01 06:20:21;;;;;;;26.30;18.03;;;;;;;29.04;53.38;94740.09;5089374;28;20202;-64
2021/07/01 06:22:48;;;;;;;47.37;19.23;;;;;;;28.84;54.70;94743.03;5088698;28;20194;-66
2021/07/01 06:25:15;;;;;;;27.10;16.93;;;;;;;28.98;54.35;94752.41;5088349;28;20678;-65
2021/07/01 06:27:43;;;;;;;22.07;17.27;;;;;;;28.98;54.15;94739.66;5090304;28;20199;-64
2021/07/01 06:30:19;;;;;;;25.50;18.07;;;;;;;28.95;53.95;94743.13;5089459;28;20197;-65
2021/07/01 06:32:51;;;;;;;24.13;18.10;;;;;;;29.06;53.77;94743.19;5089665;28;20265;-68
2021/07/01 06:35:20;;;;;;;28.17;18.37;;;;;;;29.25;53.73;94740.25;5089597;28;20202;-65
2021/07/01 06:37:49;;;;;;;25.47;17.13;;;;;;;29.26;53.53;94741.78;5090428;28;20318;-63
2021/07/01 06:40:39;;;;;;;28.20;17.80;;;;;;;29.12;54.02;94745.19;5075304;28;20328;-66
2021/07/01 06:43:26;;;;;;;27.30;19.07;;;;;;;29.25;53.23;94737.56;5090239;28;20682;-65
2021/07/01 06:46:33;;;;;;;26.47;17.03;;;;;;;29.32;52.60;94732.97;5036685;28;20323;-65
2021/07/01 06:49:20;;;;;;;21.40;16.47;;;;;;;29.31;53.45;94738.72;5010845;28;20208;-66
2021/07/01 06:52:10;;;;;;;27.53;16.47;;;;;;;29.54;53.33;94739.25;5059201;28;20215;-64
2021/07/01 06:54:56;;;;;;;24.77;15.77;;;;;;;29.79;52.33;94737.44;5079095;28;20209;-65
2021/07/01 06:57:54;;;;;;;25.70;17.17;;;;;;;29.73;50.74;94730.88;5075463;28;20784;-66
2021/07/01 07:00:23;;;;;;;23.47;16.90;;;;;;;29.87;50.96;94739.03;5068914;28;20286;-65
2021/07/01 07:02:52;;;;;;;21.93;16.23;;;;;;;29.88;51.45;94733.25;5083474;28;20188;-67
2021/07/01 07:05:20;;;;;;;25.50;16.83;;;;;;;30.22;50.38;94720.19;5080611;28;20288;-68
2021/07/01 07:07:48;;;;;;;21.03;15.17;;;;;;;29.70;51.64;94715.44;5089282;28;20575;-67
2021/07/01 07:10:19;;;;;;;23.97;15.73;;;;;;;30.18;50.19;94716.72;5089111;28;20378;-66
2021/07/01 07:12:49;;;;;;;20.90;14.47;;;;;;;30.32;49.46;94721.41;5086792;28;20676;-67
2021/07/01 07:15:28;;;;;;;20.70;15.93;;;;;;;30.28;48.22;94718.69;5069184;28;20210;-64
2021/07/01 07:18:18;;;;;;;22.23;15.13;;;;;;;30.30;48.92;94713.69;5086510;28;20187;-66
2021/07/01 07:20:46;;;;;;;29.07;14.57;;;;;;;29.71;48.30;94723.13;5088959;28;20206;-65
2021/07/01 07:23:19;;;;;;;23.80;14.87;;;;;;;30.13;48.28;94719.03;5089324;28;20290;-62
2021/07/01 07:25:47;;;;;;;22.90;13.30;;;;;;;30.21;45.42;94710.53;5088856;28;20211;-63
2021/07/01 07:28:18;;;;;;;23.23;12.97;;;;;;;30.30;46.11;94708.28;5089365;28;20203;-67
2021/07/01 07:30:45;;;;;;;21.17;12.70;;;;;;;30.42;45.52;94716.00;5091893;28;20223;-68
2021/07/01 07:33:12;;;;;;;20.80;12.57;;;;;;;30.23;43.65;94710.94;5093596;28;20195;-62
2021/07/01 07:35:39;;;;;;;20.93;12.53;;;;;;;30.45;45.80;94707.13;5093071;28;20578;-67
2021/07/01 07:38:08;;;;;;;24.93;12.20;;;;;;;30.39;43.91;94689.72;5082348;28;20196;-65
2021/07/01 07:40:39;;;;;;;23.50;12.47;;;;;;;30.81;44.54;94706.00;5075758;28;20234;-64
2021/07/01 07:43:09;;;;;;;32.33;13.00;;;;;;;30.74;44.00;94705.97;5092996;28;20199;-65
2021/07/01 07:45:37;;;;;;;19.70;12.63;;;;;;;31.01;44.80;94692.03;5092451;28;20259;-68
2021/07/01 07:48:03;;;;;;;26.23;12.77;;;;;;;30.80;45.10;94706.34;5084238;28;20200;-69
2021/07/01 07:50:33;;;;;;;22.80;12.20;;;;;;;31.07;43.53;94701.31;5072556;28;20203;-65
2021/07/01 07:53:01;;;;;;;21.37;11.87;;;;;;;30.94;43.65;94705.56;5080531;28;20569;-66
2021/07/01 07:55:30;;;;;;;22.03;12.97;;;;;;;31.01;43.84;94698.22;5092617;28;20202;-66
2021/07/01 07:58:00;;;;;;;25.30;11.83;;;;;;;31.11;43.80;94697.44;5073221;28;20203;-66
2021/07/01 08:00:28;;;;;;;34.23;12.17;;;;;;;31.02;43.34;94690.88;5085936;28;20541;-67
2021/07/01 08:03:00;;;;;;;21.83;11.93;;;;;;;31.16;41.86;94693.56;5087163;28;20593;-65
2021/07/01 08:05:30;;;;;;;19.47;10.70;;;;;;;31.67;41.36;94691.09;5072168;28;20673;-65
2021/07/01 08:07:59;;;;;;;24.77;12.40;;;;;;;31.80;41.25;94681.34;5091007;28;20210;-66
2021/07/01 08:10:31;;;;;;;24.63;11.47;;;;;;;31.49;42.50;94687.69;5092410;28;20203;-63
2021/07/01 08:13:05;;;;;;;24.23;12.30;;;;;;;31.77;41.84;94680.19;5092363;28;20206;-63
2021/07/01 08:15:37;;;;;;;26.80;11.87;;;;;;;31.73;41.33;94684.09;5092688;28;20227;-65
2021/07/01 08:18:06;;;;;;;34.43;10.93;;;;;;;31.71;39.67;94681.78;5092107;28;20690;-64
2021/07/01 08:20:34;;;;;;;27.37;10.97;;;;;;;31.77;38.77;94674.78;5092062;28;20187;-63
2021/07/01 08:23:01;;;;;;;21.47;10.00;;;;;;;31.65;39.16;94671.75;5092656;28;20748;-65
2021/07/01 08:25:30;;;;;;;25.70;10.27;;;;;;;31.88;38.29;94669.28;5092091;28;20219;-63
2021/07/01 08:27:57;;;;;;;27.30;9.87;;;;;;;31.96;36.55;94673.53;5092696;28;20205;-65
2021/07/01 08:30:26;;;;;;;30.17;8.90;;;;;;;32.08;34.35;94673.06;5092297;28;20191;-67
2021/07/01 08:33:00;;;;;;;27.37;8.07;;;;;;;31.95;34.36;94673.94;5092432;28;20602;-63
2021/07/01 08:35:28;;;;;;;24.23;7.57;;;;;;;31.98;34.55;94663.06;5092672;28;20202;-64
2021/07/01 08:38:04;;;;;;;26.70;8.87;;;;;;;31.96;34.16;94670.06;5082657;28;20202;-65
2021/07/01 08:40:37;;;;;;;32.30;9.50;;;;;;;32.15;34.37;94664.91;5084187;28;20195;-65
2021/07/01 08:43:05;;;;;;;25.40;8.50;;;;;;;32.25;33.02;94655.91;5082265;28;20191;-64
2021/07/01 08:45:41;;;;;;;26.13;7.33;;;;;;;32.29;32.41;94662.09;5091516;28;20238;-65
2021/07/01 08:48:20;;;;;;;26.50;7.87;;;;;;;32.11;33.24;94656.03;5082387;28;20199;-65
2021/07/01 08:50:57;;;;;;;28.50;8.10;;;;;;;32.21;33.74;94655.16;5074849;28;20183;-66
2021/07/01 08:53:35;;;;;;;25.00;8.20;;;;;;;32.31;32.35;94648.91;5091890;28;20244;-65
2021/07/01 08:56:03;;;;;;;22.83;7.23;;;;;;;32.33;32.14;94656.63;5076708;28;20638;-68
2021/07/01 08:58:32;;;;;;;21.87;7.23;;;;;;;32.42;31.89;94646.91;5080658;28;20635;-66
2021/07/01 09:01:01;;;;;;;27.40;8.03;;;;;;;32.75;31.21;94646.25;5088657;28;20264;-69
2021/07/01 09:03:34;;;;;;;26.27;6.90;;;;;;;32.83;31.31;94640.75;5092048;28;20620;-65
2021/07/01 09:06:04;;;;;;;24.47;6.17;;;;;;;32.64;27.19;94642.84;5090726;28;20673;-66
2021/07/01 09:08:33;;;;;;;19.50;5.87;;;;;;;32.59;28.04;94643.25;5091395;28;20562;-65
2021/07/01 09:11:02;;;;;;;34.20;7.60;;;;;;;32.59;30.45;94643.25;5089038;28;20197;-68
2021/07/01 09:13:30;;;;;;;25.23;6.73;;;;;;;32.77;30.65;94638.44;5080248;28;20199;-65
2021/07/01 09:15:58;;;;;;;28.50;7.00;;;;;;;33.03;28.77;94639.00;5090855;28;20203;-69
2021/07/01 09:18:26;;;;;;;22.20;6.07;;;;;;;32.58;28.96;94636.31;5085042;28;20203;-66
2021/07/01 09:20:55;;;;;;;27.23;9.17;;;;;;;32.58;29.51;94630.88;5090253;28;20290;-66
2021/07/01 09:23:28;;;;;;;22.10;6.90;;;;;;;33.02;29.61;94632.81;5092628;28;20734;-66
2021/07/01 09:25:59;;;;;;;29.40;7.17;;;;;;;32.95;28.86;94627.44;5091347;28;20610;-66
2021/07/01 09:28:27;;;;;;;23.77;6.33;;;;;;;32.81;28.25;94622.13;5091687;28;20199;-66
2021/07/01 09:30:56;;;;;;;28.70;7.33;;;;;;;33.05;28.37;94625.81;5091302;28;20257;-64
2021/07/01 09:33:24;;;;;;;26.53;7.17;;;;;;;32.94;27.66;94625.16;5092060;28;20260;-63
2021/07/01 09:35:52;;;;;;;23.87;6.80;;;;;;;33.03;27.92;94614.56;5090223;28;20199;-64
2021/07/01 09:38:20;;;;;;;23.13;6.93;;;;;;;33.23;28.03;94621.69;5091220;28;20234;-66
2021/07/01 09:40:48;;;;;;;25.50;7.23;;;;;;;33.32;27.72;94618.50;5090434;28;21331;-65
2021/07/01 09:43:16;;;;;;;21.67;6.53;;;;;;;33.58;28.92;94615.06;5079676;28;20241;-64
2021/07/01 09:45:49;;;;;;;25.03;6.93;;;;;;;33.66;27.58;94609.16;5084267;28;20294;-66
2021/07/01 09:48:18;;;;;;;28.90;6.97;;;;;;;33.62;27.22;94611.16;5070427;28;20211;-67
2021/07/01 09:50:47;;;;;;;22.53;7.07;;;;;;;33.87;28.62;94605.34;5084189;28;20195;-67
2021/07/01 09:53:37;;;;;;;27.13;6.87;;;;;;;33.75;28.32;94612.13;5080617;28;20209;-64
2021/07/01 09:56:08;;;;;;;23.37;7.20;;;;;;;33.72;29.15;94598.59;5090302;28;20624;-66
2021/07/01 09:58:46;;;;;;;22.00;7.13;;;;;;;33.76;28.77;94591.13;5090829;28;20282;-66
2021/07/01 10:01:23;;;;;;;33.40;7.57;;;;;;;34.02;28.69;94584.97;5089920;28;20649;-67
2021/07/01 10:03:58;;;;;;;28.93;6.90;;;;;;;34.12;27.75;94588.72;5077507;28;20199;-67
2021/07/01 10:06:26;;;;;;;27.87;7.67;;;;;;;33.92;27.25;94575.00;5077103;28;20215;-65
2021/07/01 10:08:54;;;;;;;29.73;6.93;;;;;;;34.23;28.00;94581.16;5090688;28;20202;-66
2021/07/01 10:11:41;;;;;;;24.97;6.87;;;;;;;34.16;28.27;94579.28;5089860;28;20669;-66
2021/07/01 10:14:14;;;;;;;26.67;7.30;;;;;;;34.26;27.77;94572.94;5090010;28;20195;-67
2021/07/01 10:16:42;;;;;;;28.87;6.53;;;;;;;34.46;27.22;94571.06;5076760;28;20210;-64
2021/07/01 10:19:17;;;;;;;24.27;7.67;;;;;;;34.46;27.57;94571.06;5080726;28;20677;-66
2021/07/01 10:21:44;;;;;;;32.80;8.83;;;;;;;34.65;27.40;94575.00;5090456;28;20197;-66
2021/07/01 10:24:16;;;;;;;24.00;6.80;;;;;;;34.74;27.07;94553.47;5089527;28;20630;-68
2021/07/01 10:26:50;;;;;;;26.53;7.53;;;;;;;34.69;26.58;94562.84;5089807;28;20279;-63
2021/07/01 10:29:19;;;;;;;29.30;8.63;;;;;;;34.70;27.79;94564.41;5089339;28;20191;-65
2021/07/01 10:31:47;;;;;;;23.50;7.90;;;;;;;35.03;26.28;94559.16;5089934;28;20238;-67
2021/07/01 10:34:14;;;;;;;25.73;7.17;;;;;;;34.66;25.12;94549.31;5089456;28;20205;-66
2021/07/01 10:36:41;;;;;;;30.40;7.53;;;;;;;34.89;26.24;94548.50;5089939;28;20202;-66
2021/07/01 10:39:08;;;;;;;30.10;7.90;;;;;;;34.87;26.69;94545.44;5075316;28;20248;-66
2021/07/01 10:41:38;;;;;;;31.97;8.27;;;;;;;35.05;26.37;94540.44;5078073;28;20203;-64
2021/07/01 10:44:05;;;;;;;36.27;8.47;;;;;;;35.36;26.21;94533.56;5073783;28;20194;-66
2021/07/01 10:46:44;;;;;;;30.70;7.80;;;;;;;35.20;25.76;94531.53;5079117;28;20211;-68
2021/07/01 10:49:12;;;;;;;31.20;7.27;;;;;;;34.94;26.21;94520.81;5087781;28;20223;-62
2021/07/01 10:51:56;;;;;;;23.40;8.43;;;;;;;35.37;25.54;94518.72;5076960;28;20636;-66
2021/07/01 10:54:24;;;;;;;25.60;8.00;;;;;;;35.25;25.87;94513.94;5083742;28;20192;-68
2021/07/01 10:57:10;;;;;;;26.97;8.87;;;;;;;35.11;26.94;94498.66;5083469;28;20322;-66
2021/07/01 10:59:50;;;;;;;28.27;7.97;;;;;;;35.07;25.55;94506.16;5089761;28;20197;-64
2021/07/01 11:02:27;;;;;;;26.20;7.30;;;;;;;35.25;26.99;94505.78;5075665;28;20222;-66
2021/07/01 11:04:59;;;;;;;29.87;7.33;;;;;;;35.40;25.15;94501.56;5071816;28;20377;-64
2021/07/01 11:07:27;;;;;;;30.67;7.33;;;;;;;35.32;24.91;94492.78;5068983;28;20615;-66
2021/07/01 11:10:13;;;;;;;36.03;8.63;;;;;;;35.54;25.46;94484.91;5069207;28;20723;-68
2021/07/01 11:12:49;;;;;;;33.63;7.23;;;;;;;35.70;25.58;94487.63;5083987;28;20191;-65
2021/07/01 11:15:23;;;;;;;23.33;7.20;;;;;;;35.82;24.70;94473.34;5079561;28;20202;-70
2021/07/01 11:17:50;;;;;;;28.53;6.70;;;;;;;35.80;25.04;94478.47;5072478;28;20200;-66
2021/07/01 11:20:19;;;;;;;27.27;7.40;;;;;;;35.90;24.91;94474.72;5083071;28;20202;-67
2021/07/01 11:22:57;;;;;;;29.47;7.60;;;;;;;35.74;23.97;94471.97;5075854;28;20203;-66
2021/07/01 11:25:37;;;;;;;29.83;8.23;;;;;;;35.72;26.01;94474.34;5089241;28;20214;-67
2021/07/01 11:28:28;;;;;;;27.10;7.70;;;;;;;35.80;24.70;94472.22;5077032;28;20199;-64
2021/07/01 11:31:00;;;;;;;32.17;7.50;;;;;;;35.52;24.89;94460.03;5089076;28;20218;-64
2021/07/01 11:33:29;;;;;;;25.57;7.17;;;;;;;35.50;24.32;94456.97;5090025;28;20195;-66
2021/07/01 11:36:09;;;;;;;29.33;8.37;;;;;;;35.14;24.99;94448.81;5088075;28;20199;-65
2021/07/01 11:38:37;;;;;;;30.70;8.33;;;;;;;34.77;25.63;94448.41;5074727;28;20203;-65
2021/07/01 11:41:04;;;;;;;35.30;8.20;;;;;;;35.03;24.84;94439.31;5089045;28;20195;-62
2021/07/01 11:43:35;;;;;;;21.80;7.97;;;;;;;34.99;25.67;94444.06;5089372;28;20187;-63
2021/07/01 11:46:02;;;;;;;23.50;8.03;;;;;;;35.01;26.08;94434.31;5082569;28;20643;-65
2021/07/01 11:48:32;;;;;;;26.40;6.97;;;;;;;35.11;26.24;94435.28;5081979;28;20218;-66
2021/07/01 11:51:02;;;;;;;25.63;7.73;;;;;;;35.49;26.21;94417.28;5074282;28;20624;-67
2021/07/01 11:53:29;;;;;;;27.40;7.63;;;;;;;35.61;26.66;94408.41;5077100;28;20236;-65
2021/07/01 11:56:00;;;;;;;26.07;7.97;;;;;;;35.54;25.75;94412.09;5068889;28;20231;-63
2021/07/01 11:58:31;;;;;;;38.77;8.30;;;;;;;35.35;25.60;94402.00;5068615;28;20324;-62
2021/07/01 12:01:00;;;;;;;28.63;7.80;;;;;;;35.73;26.66;94391.38;5083361;28;20208;-65
2021/07/01 12:03:29;;;;;;;29.47;7.57;;;;;;;35.56;25.14;94379.72;5068848;28;20283;-65
2021/07/01 12:05:56;;;;;;;29.77;8.27;;;;;;;35.45;25.66;94386.63;5082098;28;20652;-64
2021/07/01 12:08:24;;;;;;;26.23;7.80;;;;;;;35.32;25.43;94380.28;5077603;28;20252;-65
2021/07/01 12:11:05;;;;;;;29.40;7.77;;;;;;;35.55;26.00;94378.19;5074560;28;20267;-66